createdAt,value
2023-01-01T00:04:17.494Z,30.40
2023-01-01T00:09:34.345Z,24.30
2023-01-01T00:14:34.483Z,26.60
2023-01-01T00:19:33.256Z,23.77
2023-01-01T00:24:32.137Z,38.85
2023-01-01T00:29:30.884Z,32.67
2023-01-01T00:34:31.068Z,26.98
2023-01-01T00:39:29.832Z,25.70
2023-01-01T00:44:28.597Z,20.92
2023-01-01T00:49:27.968Z,25.00
2023-01-01T00:54:28.154Z,23.33
2023-01-01T00:59:28.882Z,20.85
2023-01-01T01:04:27.975Z,23.98
2023-01-01T01:09:28.135Z,21.05
2023-01-01T01:14:26.899Z,21.02
2023-01-01T01:19:26.839Z,21.52
2023-01-01T01:24:25.588Z,21.33
2023-01-01T01:29:25.864Z,17.83
2023-01-01T01:34:28.099Z,20.65
2023-01-01T01:39:27.353Z,21.77
2023-01-01T01:45:02.550Z,20.52
2023-01-01T01:50:08.218Z,22.88
2023-01-01T01:55:09.462Z,20.13
2023-01-01T02:00:11.645Z,22.73
2023-01-01T02:05:13.084Z,21.40
2023-01-01T02:10:12.051Z,18.13
2023-01-01T02:15:11.330Z,23.70
2023-01-01T02:20:24.189Z,21.98
2023-01-01T02:25:37.028Z,19.70
2023-01-01T02:30:40.463Z,19.23
2023-01-01T02:40:46.536Z,22.42
2023-01-01T02:45:46.729Z,16.92
2023-01-01T02:50:45.894Z,20.77
2023-01-01T02:55:55.913Z,21.75
2023-01-01T03:01:05.139Z,27.83
2023-01-01T03:06:27.251Z,23.55
2023-01-01T03:11:33.826Z,22.33
2023-01-01T03:16:39.695Z,21.13
2023-01-01T03:21:43.717Z,21.42
2023-01-01T03:26:44.940Z,22.90
2023-01-01T03:31:47.332Z,19.48
2023-01-01T03:36:50.464Z,22.27
2023-01-01T03:41:54.298Z,20.85
2023-01-01T03:46:55.150Z,19.88
2023-01-01T03:52:20.559Z,20.63
2023-01-01T03:57:24.878Z,20.38
2023-01-01T04:02:33.643Z,18.00
2023-01-01T04:07:32.820Z,19.10
2023-01-01T04:12:32.119Z,17.30
2023-01-01T04:17:32.236Z,21.08
2023-01-01T04:22:31.019Z,20.38
2023-01-01T04:27:29.973Z,19.20
2023-01-01T04:32:28.866Z,19.70
2023-01-01T04:37:29.767Z,21.75
2023-01-01T04:42:28.510Z,18.98
2023-01-01T04:47:28.082Z,18.00
2023-01-01T04:52:26.864Z,18.20
2023-01-01T04:57:26.997Z,18.77
2023-01-01T05:02:26.008Z,16.60
2023-01-01T05:07:24.800Z,16.38
2023-01-01T05:12:23.551Z,15.57
2023-01-01T05:17:23.718Z,26.30
2023-01-01T05:22:22.535Z,17.60
2023-01-01T05:27:21.389Z,46.05
2023-01-01T05:32:20.241Z,26.77
2023-01-01T05:37:20.451Z,16.65
2023-01-01T05:42:20.209Z,108.68
2023-01-01T05:47:19.102Z,35.88
2023-01-01T05:52:21.595Z,19.45
2023-01-01T05:57:26.503Z,26.88
2023-01-01T06:02:25.444Z,28.92
2023-01-01T06:07:24.502Z,32.22
2023-01-01T06:12:23.340Z,21.40
2023-01-01T06:17:23.529Z,20.80
2023-01-01T06:22:22.274Z,22.88
2023-01-01T06:27:21.016Z,28.58
2023-01-01T06:32:19.710Z,25.08
2023-01-01T06:37:21.586Z,20.80
2023-01-01T06:42:20.441Z,21.02
2023-01-01T06:47:19.248Z,21.90
2023-01-01T06:52:21.455Z,34.50
2023-01-01T06:57:20.321Z,25.73
2023-01-01T07:02:19.199Z,21.42
2023-01-01T07:07:18.148Z,57.97
2023-01-01T07:12:18.724Z,58.17
2023-01-01T07:17:17.812Z,21.67
2023-01-01T07:22:18.663Z,22.50
2023-01-01T07:27:18.975Z,23.65
2023-01-01T07:32:17.761Z,21.58
2023-01-01T07:37:16.571Z,24.00
2023-01-01T07:42:15.432Z,26.65
2023-01-01T07:47:25.295Z,18.58
2023-01-01T07:52:24.121Z,15.73
2023-01-01T07:57:22.949Z,19.30
2023-01-01T08:02:23.292Z,16.17
2023-01-01T08:07:22.200Z,16.88
2023-01-01T08:12:21.011Z,18.40
2023-01-01T08:17:20.035Z,15.00
2023-01-01T08:22:20.384Z,17.38
2023-01-01T08:27:19.437Z,19.25
2023-01-01T08:32:18.287Z,19.17
2023-01-01T08:37:17.140Z,17.80
2023-01-01T08:42:17.271Z,18.15
2023-01-01T08:47:20.795Z,18.45
2023-01-01T08:52:20.378Z,11.93
2023-01-01T08:57:20.510Z,13.13
2023-01-01T09:02:19.332Z,16.00
2023-01-01T09:07:18.326Z,14.02
2023-01-01T09:12:17.997Z,9.35
2023-01-01T09:17:18.231Z,11.77
2023-01-01T09:22:16.990Z,11.43
2023-01-01T09:27:15.888Z,11.70
2023-01-01T09:32:14.712Z,12.52
2023-01-01T09:37:14.846Z,11.35
2023-01-01T09:42:28.545Z,9.35
2023-01-01T09:47:31.634Z,10.65
2023-01-01T09:52:41.199Z,8.07
2023-01-01T09:57:40.832Z,11.25
2023-01-01T10:02:53.620Z,11.07
2023-01-01T10:08:04.488Z,14.00
2023-01-01T10:13:16.814Z,14.18
2023-01-01T10:18:21.173Z,15.57
2023-01-01T10:23:25.686Z,22.20
2023-01-01T10:28:31.635Z,11.85
2023-01-01T10:33:30.489Z,8.20
2023-01-01T10:38:30.783Z,8.60
2023-01-01T10:43:29.551Z,8.68
2023-01-01T10:48:30.773Z,8.82
2023-01-01T10:53:33.344Z,8.75
2023-01-01T11:04:01.489Z,7.47
2023-01-01T11:09:04.566Z,8.32
2023-01-01T11:14:06.404Z,7.22
2023-01-01T11:19:07.360Z,8.63
2023-01-01T11:24:20.426Z,6.80
2023-01-01T11:29:25.017Z,5.32
2023-01-01T11:34:37.499Z,6.72
2023-01-01T11:39:39.129Z,4.80
2023-01-01T11:44:42.262Z,9.30
2023-01-01T11:49:41.093Z,7.03
2023-01-01T11:54:44.587Z,5.88
2023-01-01T11:59:48.759Z,4.90
2023-01-01T12:04:51.729Z,6.47
2023-01-01T12:10:01.607Z,6.05
2023-01-01T12:15:05.558Z,7.75
2023-01-01T12:20:12.347Z,6.75
2023-01-01T12:25:17.567Z,11.70
2023-01-01T12:30:22.593Z,8.13
2023-01-01T12:35:32.157Z,8.25
2023-01-01T12:40:48.289Z,6.10
2023-01-01T12:46:25.788Z,10.65
2023-01-01T12:51:34.181Z,6.30
2023-01-01T12:56:39.765Z,13.20
2023-01-01T13:01:40.453Z,6.93
2023-01-01T13:06:43.978Z,10.60
2023-01-01T13:11:48.811Z,7.38
2023-01-01T13:16:55.188Z,6.13
2023-01-01T13:21:54.178Z,7.75
2023-01-01T13:26:55.085Z,7.25
2023-01-01T13:32:08.372Z,10.18
2023-01-01T13:37:28.304Z,11.75
2023-01-01T13:42:43.048Z,10.55
2023-01-01T13:48:01.637Z,10.07
2023-01-01T13:53:17.286Z,9.48
2023-01-01T13:58:55.933Z,11.02
2023-01-01T14:03:57.525Z,13.15
2023-01-01T14:09:03.906Z,11.50
2023-01-01T14:14:04.158Z,12.75
2023-01-01T14:19:03.775Z,11.10
2023-01-01T14:24:05.418Z,18.15
2023-01-01T14:29:08.935Z,19.20
2023-01-01T14:34:15.430Z,19.60
2023-01-01T14:39:28.074Z,26.15
2023-01-01T14:44:34.660Z,43.88
2023-01-01T14:49:36.023Z,49.55
2023-01-01T14:54:38.299Z,36.70
2023-01-01T14:59:47.369Z,26.98
2023-01-01T15:04:46.132Z,30.88
2023-01-01T15:09:44.995Z,37.03
2023-01-01T15:14:46.532Z,39.78
2023-01-01T15:19:48.106Z,40.67
2023-01-01T15:24:50.362Z,40.60
2023-01-01T15:29:51.882Z,48.47
2023-01-01T15:34:55.254Z,52.65
2023-01-01T15:39:57.596Z,59.08
2023-01-01T15:44:57.727Z,64.00
2023-01-01T15:50:09.101Z,62.03
2023-01-01T15:55:08.426Z,65.25
2023-01-01T16:00:20.244Z,53.80
2023-01-01T16:05:22.883Z,65.70
2023-01-01T16:10:21.740Z,62.55
2023-01-01T16:15:21.963Z,56.40
2023-01-01T16:20:22.803Z,56.80
2023-01-01T16:25:23.532Z,59.78
2023-01-01T16:30:29.195Z,52.80
2023-01-01T16:35:27.983Z,49.70
2023-01-01T16:40:26.820Z,140.27
2023-01-01T16:45:27.041Z,162.60
2023-01-01T16:50:27.186Z,218.70
2023-01-01T16:55:26.871Z,185.48
2023-01-01T17:00:27.353Z,173.10
2023-01-01T17:05:26.212Z,119.93
2023-01-01T17:10:25.017Z,93.70
2023-01-01T17:15:24.585Z,73.65
2023-01-01T17:20:24.997Z,64.22
2023-01-01T17:25:24.875Z,68.25
2023-01-01T17:30:23.617Z,60.83
2023-01-01T17:35:22.483Z,70.82
2023-01-01T17:40:22.929Z,66.95
2023-01-01T17:45:22.608Z,62.15
2023-01-01T17:50:23.402Z,57.40
2023-01-01T17:55:23.675Z,51.45
2023-01-01T18:00:22.653Z,39.90
2023-01-01T18:05:23.494Z,32.75
2023-01-01T18:10:23.638Z,33.72
2023-01-01T18:15:22.773Z,39.95
2023-01-01T18:20:21.677Z,37.70
2023-01-01T18:25:21.638Z,61.20
2023-01-01T18:30:21.970Z,59.20
2023-01-01T18:35:20.912Z,57.17
2023-01-01T18:40:19.790Z,57.90
2023-01-01T18:45:22.141Z,94.95
2023-01-01T18:50:25.885Z,46.15
2023-01-01T18:55:28.184Z,166.27
2023-01-01T19:00:31.326Z,122.28
2023-01-01T19:10:37.192Z,67.18
2023-01-01T19:15:37.651Z,64.18
2023-01-01T19:20:36.481Z,45.45
2023-01-01T19:25:40.230Z,44.45
2023-01-01T19:30:40.556Z,43.10
2023-01-01T19:35:39.483Z,44.97
2023-01-01T19:40:38.282Z,43.33
2023-01-01T19:45:37.249Z,29.60
2023-01-01T19:50:40.771Z,24.77
2023-01-01T19:55:47.416Z,25.92
2023-01-01T20:00:48.924Z,36.15
2023-01-01T20:05:56.981Z,24.05
2023-01-01T20:10:58.374Z,27.45
2023-01-01T20:16:15.970Z,32.53
2023-01-01T20:21:42.627Z,30.67
2023-01-01T20:26:45.725Z,31.65
2023-01-01T20:31:51.317Z,31.63
2023-01-01T20:37:11.398Z,29.27
2023-01-01T20:42:12.502Z,21.25
2023-01-01T20:47:11.490Z,26.23
2023-01-01T20:52:13.344Z,28.33
2023-01-01T20:57:13.690Z,84.25
2023-01-01T21:02:13.685Z,41.08
2023-01-01T21:07:14.169Z,32.20
2023-01-01T21:12:13.384Z,35.22
2023-01-01T21:17:22.337Z,21.77
2023-01-01T21:22:22.779Z,23.00
2023-01-01T21:27:25.615Z,30.50
2023-01-01T21:32:26.245Z,24.10
2023-01-01T21:37:47.441Z,33.75
2023-01-01T21:42:46.308Z,22.33
2023-01-01T21:47:45.380Z,22.50
2023-01-01T21:52:47.628Z,22.33
2023-01-01T21:57:46.786Z,21.08
2023-01-01T22:02:48.329Z,19.08
2023-01-01T22:08:04.111Z,19.88
2023-01-01T22:13:03.269Z,43.67
2023-01-01T22:18:18.035Z,34.13
2023-01-01T22:23:43.325Z,24.83
2023-01-01T22:28:44.946Z,22.00
2023-01-01T22:33:47.291Z,34.97
2023-01-01T22:38:47.517Z,22.48
2023-01-01T22:43:49.539Z,22.23
2023-01-01T22:48:54.210Z,25.20
2023-01-01T22:53:58.181Z,26.80
2023-01-01T22:58:58.504Z,21.63
2023-01-01T23:03:57.425Z,18.40
2023-01-01T23:08:58.265Z,19.25
2023-01-01T23:14:14.376Z,16.80
2023-01-01T23:19:13.214Z,16.85
2023-01-01T23:24:16.797Z,19.25
2023-01-01T23:29:17.092Z,16.75
2023-01-01T23:34:16.672Z,16.48
2023-01-01T23:39:16.936Z,22.23
2023-01-01T23:44:15.831Z,27.45
2023-01-01T23:49:15.203Z,17.73
2023-01-01T23:54:13.995Z,13.60
2023-01-01T23:59:15.521Z,15.20
